sensor_id;sensor_type;location;lat;lon;timestamp;temperature;humidity
6822;DHT22;3449;48.728;8.968;2023-02-12T00:01:47;3.70;99.90
6822;DHT22;3449;48.728;8.968;2023-02-12T00:04:14;3.70;99.90
6822;DHT22;3449;48.728;8.968;2023-02-12T00:06:42;3.70;99.90
6822;DHT22;3449;48.728;8.968;2023-02-12T00:09:09;3.60;99.90
6822;DHT22;3449;48.728;8.968;2023-02-12T00:11:36;3.60;99.90
6822;DHT22;3449;48.728;8.968;2023-02-12T00:14:03;3.60;99.90
6822;DHT22;3449;48.728;8.968;2023-02-12T00:16:30;3.60;99.90
6822;DHT22;3449;48.728;8.968;2023-02-12T00:18:58;3.60;99.90
6822;DHT22;3449;48.728;8.968;2023-02-12T00:21:25;3.60;99.90
6822;DHT22;3449;48.728;8.968;2023-02-12T00:23:54;3.50;99.90
6822;DHT22;3449;48.728;8.968;2023-02-12T00:26:22;3.50;99.90
6822;DHT22;3449;48.728;8.968;2023-02-12T00:28:50;3.50;99.90
6822;DHT22;3449;48.728;8.968;2023-02-12T00:31:18;3.50;99.90
6822;DHT22;3449;48.728;8.968;2023-02-12T00:33:45;3.50;99.90
6822;DHT22;3449;48.728;8.968;2023-02-12T00:36:15;3.40;99.90
6822;DHT22;3449;48.728;8.968;2023-02-12T00:38:42;3.40;99.90
6822;DHT22;3449;48.728;8.968;2023-02-12T00:41:10;3.40;99.90
6822;DHT22;3449;48.728;8.968;2023-02-12T00:43:37;3.40;99.90
6822;DHT22;3449;48.728;8.968;2023-02-12T00:46:04;3.40;99.90
6822;DHT22;3449;48.728;8.968;2023-02-12T00:48:33;3.40;99.90
6822;DHT22;3449;48.728;8.968;2023-02-12T00:51:01;3.40;99.90
6822;DHT22;3449;48.728;8.968;2023-02-12T00:53:28;3.40;99.90
6822;DHT22;3449;48.728;8.968;2023-02-12T00:55:55;3.40;99.90
6822;DHT22;3449;48.728;8.968;2023-02-12T00:58:24;3.40;99.90
6822;DHT22;3449;48.728;8.968;2023-02-12T01:00:51;3.40;99.90
6822;DHT22;3449;48.728;8.968;2023-02-12T01:03:18;3.40;99.90
6822;DHT22;3449;48.728;8.968;2023-02-12T01:05:45;3.40;99.90
6822;DHT22;3449;48.728;8.968;2023-02-12T01:08:14;3.40;99.90
6822;DHT22;3449;48.728;8.968;2023-02-12T01:10:42;3.40;99.90
6822;DHT22;3449;48.728;8.968;2023-02-12T01:13:10;3.40;99.90
6822;DHT22;3449;48.728;8.968;2023-02-12T01:15:39;3.40;99.90
6822;DHT22;3449;48.728;8.968;2023-02-12T01:18:06;3.40;99.90
6822;DHT22;3449;48.728;8.968;2023-02-12T01:20:33;3.40;99.90
6822;DHT22;3449;48.728;8.968;2023-02-12T01:23:00;3.40;99.90
6822;DHT22;3449;48.728;8.968;2023-02-12T01:25:27;3.40;99.90
6822;DHT22;3449;48.728;8.968;2023-02-12T01:27:54;3.40;99.90
6822;DHT22;3449;48.728;8.968;2023-02-12T01:30:21;3.40;99.90
6822;DHT22;3449;48.728;8.968;2023-02-12T01:32:50;3.50;99.90
6822;DHT22;3449;48.728;8.968;2023-02-12T01:35:17;3.50;99.90
6822;DHT22;3449;48.728;8.968;2023-02-12T01:37:44;3.50;99.90
6822;DHT22;3449;48.728;8.968;2023-02-12T01:40:14;3.50;99.90
6822;DHT22;3449;48.728;8.968;2023-02-12T01:42:43;3.50;99.90
6822;DHT22;3449;48.728;8.968;2023-02-12T01:45:46;3.50;99.90
6822;DHT22;3449;48.728;8.968;2023-02-12T01:48:16;3.50;99.90
6822;DHT22;3449;48.728;8.968;2023-02-12T01:50:45;3.50;99.90
6822;DHT22;3449;48.728;8.968;2023-02-12T01:53:14;3.50;99.90
6822;DHT22;3449;48.728;8.968;2023-02-12T01:55:46;3.50;99.90
6822;DHT22;3449;48.728;8.968;2023-02-12T01:58:14;3.50;99.90
6822;DHT22;3449;48.728;8.968;2023-02-12T02:00:41;3.50;99.90
6822;DHT22;3449;48.728;8.968;2023-02-12T02:03:09;3.50;99.90
6822;DHT22;3449;48.728;8.968;2023-02-12T02:05:43;3.50;99.90
6822;DHT22;3449;48.728;8.968;2023-02-12T02:08:12;3.50;99.90
6822;DHT22;3449;48.728;8.968;2023-02-12T02:10:39;3.50;99.90
6822;DHT22;3449;48.728;8.968;2023-02-12T02:13:06;3.50;99.90
6822;DHT22;3449;48.728;8.968;2023-02-12T02:15:55;3.50;99.90
6822;DHT22;3449;48.728;8.968;2023-02-12T02:18:28;3.50;99.90
6822;DHT22;3449;48.728;8.968;2023-02-12T02:24:19;3.40;99.90
6822;DHT22;3449;48.728;8.968;2023-02-12T02:27:09;3.50;99.90
6822;DHT22;3449;48.728;8.968;2023-02-12T02:30:23;3.50;99.90
6822;DHT22;3449;48.728;8.968;2023-02-12T02:35:54;3.50;99.90
6822;DHT22;3449;48.728;8.968;2023-02-12T02:38:32;3.50;99.90
6822;DHT22;3449;48.728;8.968;2023-02-12T02:41:05;3.50;99.90
6822;DHT22;3449;48.728;8.968;2023-02-12T02:43:34;3.40;99.90
6822;DHT22;3449;48.728;8.968;2023-02-12T02:46:09;3.40;99.90
6822;DHT22;3449;48.728;8.968;2023-02-12T02:48:40;3.40;99.90
6822;DHT22;3449;48.728;8.968;2023-02-12T02:51:11;3.40;99.90
6822;DHT22;3449;48.728;8.968;2023-02-12T02:53:43;3.40;99.90
6822;DHT22;3449;48.728;8.968;2023-02-12T02:56:13;3.40;99.90
6822;DHT22;3449;48.728;8.968;2023-02-12T02:58:45;3.40;99.90
6822;DHT22;3449;48.728;8.968;2023-02-12T03:01:17;3.40;99.90
6822;DHT22;3449;48.728;8.968;2023-02-12T03:03:48;3.40;99.90
6822;DHT22;3449;48.728;8.968;2023-02-12T03:06:21;3.40;99.90
6822;DHT22;3449;48.728;8.968;2023-02-12T03:08:51;3.40;99.90
6822;DHT22;3449;48.728;8.968;2023-02-12T03:11:22;3.40;99.90
6822;DHT22;3449;48.728;8.968;2023-02-12T03:13:54;3.40;99.90
6822;DHT22;3449;48.728;8.968;2023-02-12T03:16:25;3.40;99.90
6822;DHT22;3449;48.728;8.968;2023-02-12T03:18:55;3.40;99.90
6822;DHT22;3449;48.728;8.968;2023-02-12T03:21:29;3.40;99.90
6822;DHT22;3449;48.728;8.968;2023-02-12T03:24:01;3.40;99.90
6822;DHT22;3449;48.728;8.968;2023-02-12T03:26:35;3.40;99.90
6822;DHT22;3449;48.728;8.968;2023-02-12T03:29:04;3.40;99.90
6822;DHT22;3449;48.728;8.968;2023-02-12T03:31:36;3.30;99.90
6822;DHT22;3449;48.728;8.968;2023-02-12T03:34:12;3.30;99.90
6822;DHT22;3449;48.728;8.968;2023-02-12T03:36:47;3.30;99.90
6822;DHT22;3449;48.728;8.968;2023-02-12T03:39:27;3.30;99.90
6822;DHT22;3449;48.728;8.968;2023-02-12T03:42:00;3.30;99.90
6822;DHT22;3449;48.728;8.968;2023-02-12T03:44:42;3.30;99.90
6822;DHT22;3449;48.728;8.968;2023-02-12T03:47:18;3.30;99.90
6822;DHT22;3449;48.728;8.968;2023-02-12T03:49:51;3.30;99.90
6822;DHT22;3449;48.728;8.968;2023-02-12T03:52:19;3.30;99.90
6822;DHT22;3449;48.728;8.968;2023-02-12T03:54:46;3.30;99.90
6822;DHT22;3449;48.728;8.968;2023-02-12T03:57:16;3.30;99.90
6822;DHT22;3449;48.728;8.968;2023-02-12T03:59:44;3.30;99.90
6822;DHT22;3449;48.728;8.968;2023-02-12T04:02:11;3.30;99.90
6822;DHT22;3449;48.728;8.968;2023-02-12T04:04:40;3.30;99.90
6822;DHT22;3449;48.728;8.968;2023-02-12T04:07:07;3.30;99.90
6822;DHT22;3449;48.728;8.968;2023-02-12T04:09:35;3.30;99.90
6822;DHT22;3449;48.728;8.968;2023-02-12T04:12:13;3.30;99.90
6822;DHT22;3449;48.728;8.968;2023-02-12T04:14:47;3.30;99.90
6822;DHT22;3449;48.728;8.968;2023-02-12T04:17:24;3.30;99.90
6822;DHT22;3449;48.728;8.968;2023-02-12T04:20:09;3.30;99.90
6822;DHT22;3449;48.728;8.968;2023-02-12T04:22:45;3.30;99.90
6822;DHT22;3449;48.728;8.968;2023-02-12T04:25:21;3.30;99.90
6822;DHT22;3449;48.728;8.968;2023-02-12T04:27:56;3.30;99.90
6822;DHT22;3449;48.728;8.968;2023-02-12T04:30:29;3.30;99.90
6822;DHT22;3449;48.728;8.968;2023-02-12T04:33:00;3.20;99.90
6822;DHT22;3449;48.728;8.968;2023-02-12T04:35:31;3.20;99.90
6822;DHT22;3449;48.728;8.968;2023-02-12T04:38:04;3.20;99.90
6822;DHT22;3449;48.728;8.968;2023-02-12T04:40:35;3.20;99.90
6822;DHT22;3449;48.728;8.968;2023-02-12T04:43:05;3.20;99.90
6822;DHT22;3449;48.728;8.968;2023-02-12T04:45:34;3.20;99.90
6822;DHT22;3449;48.728;8.968;2023-02-12T04:48:02;3.20;99.90
6822;DHT22;3449;48.728;8.968;2023-02-12T04:50:37;3.20;99.90
6822;DHT22;3449;48.728;8.968;2023-02-12T04:53:04;3.10;99.90
6822;DHT22;3449;48.728;8.968;2023-02-12T04:55:31;3.20;99.90
6822;DHT22;3449;48.728;8.968;2023-02-12T04:57:58;3.20;99.90
6822;DHT22;3449;48.728;8.968;2023-02-12T05:00:25;3.20;99.90
6822;DHT22;3449;48.728;8.968;2023-02-12T05:02:52;3.20;99.90
6822;DHT22;3449;48.728;8.968;2023-02-12T05:05:19;3.20;99.90
6822;DHT22;3449;48.728;8.968;2023-02-12T05:07:47;3.20;99.90
6822;DHT22;3449;48.728;8.968;2023-02-12T05:10:14;3.20;99.90
6822;DHT22;3449;48.728;8.968;2023-02-12T05:12:41;3.20;99.90
6822;DHT22;3449;48.728;8.968;2023-02-12T05:15:09;3.20;99.90
6822;DHT22;3449;48.728;8.968;2023-02-12T05:17:36;3.20;99.90
6822;DHT22;3449;48.728;8.968;2023-02-12T05:20:03;3.20;99.90
6822;DHT22;3449;48.728;8.968;2023-02-12T05:22:30;3.20;99.90
6822;DHT22;3449;48.728;8.968;2023-02-12T05:24:58;3.10;99.90
6822;DHT22;3449;48.728;8.968;2023-02-12T05:27:25;3.20;99.90
6822;DHT22;3449;48.728;8.968;2023-02-12T05:29:52;3.20;99.90
6822;DHT22;3449;48.728;8.968;2023-02-12T05:32:19;3.20;99.90
6822;DHT22;3449;48.728;8.968;2023-02-12T05:34:46;3.20;99.90
6822;DHT22;3449;48.728;8.968;2023-02-12T05:37:13;3.20;99.90
6822;DHT22;3449;48.728;8.968;2023-02-12T05:39:40;3.20;99.90
6822;DHT22;3449;48.728;8.968;2023-02-12T05:42:08;3.20;99.90
6822;DHT22;3449;48.728;8.968;2023-02-12T05:44:35;3.20;99.90
6822;DHT22;3449;48.728;8.968;2023-02-12T05:47:02;3.20;99.90
6822;DHT22;3449;48.728;8.968;2023-02-12T05:49:29;3.20;99.90
6822;DHT22;3449;48.728;8.968;2023-02-12T05:51:55;3.20;99.90
6822;DHT22;3449;48.728;8.968;2023-02-12T05:54:22;3.10;99.90
6822;DHT22;3449;48.728;8.968;2023-02-12T05:56:49;3.10;99.90
6822;DHT22;3449;48.728;8.968;2023-02-12T05:59:20;3.10;99.90
6822;DHT22;3449;48.728;8.968;2023-02-12T06:01:49;3.20;99.90
6822;DHT22;3449;48.728;8.968;2023-02-12T06:04:18;3.10;99.90
6822;DHT22;3449;48.728;8.968;2023-02-12T06:06:45;3.10;99.90
6822;DHT22;3449;48.728;8.968;2023-02-12T06:09:12;3.00;99.90
6822;DHT22;3449;48.728;8.968;2023-02-12T06:11:39;3.10;99.90
6822;DHT22;3449;48.728;8.968;2023-02-12T06:14:10;3.10;99.90
6822;DHT22;3449;48.728;8.968;2023-02-12T06:16:39;3.10;99.90
6822;DHT22;3449;48.728;8.968;2023-02-12T06:19:06;3.10;99.90
6822;DHT22;3449;48.728;8.968;2023-02-12T06:21:33;3.10;99.90
6822;DHT22;3449;48.728;8.968;2023-02-12T06:24:00;3.10;99.90
6822;DHT22;3449;48.728;8.968;2023-02-12T06:26:27;3.10;99.90
6822;DHT22;3449;48.728;8.968;2023-02-12T06:28:54;3.10;99.90
6822;DHT22;3449;48.728;8.968;2023-02-12T06:31:22;3.00;99.90
6822;DHT22;3449;48.728;8.968;2023-02-12T06:33:52;3.00;99.90
6822;DHT22;3449;48.728;8.968;2023-02-12T06:36:19;3.00;99.90
6822;DHT22;3449;48.728;8.968;2023-02-12T06:38:46;3.00;99.90
6822;DHT22;3449;48.728;8.968;2023-02-12T06:41:14;3.00;99.90
6822;DHT22;3449;48.728;8.968;2023-02-12T06:43:41;3.00;99.90
6822;DHT22;3449;48.728;8.968;2023-02-12T06:46:08;3.00;99.90
6822;DHT22;3449;48.728;8.968;2023-02-12T06:48:35;3.00;99.90
6822;DHT22;3449;48.728;8.968;2023-02-12T06:51:09;3.00;99.90
6822;DHT22;3449;48.728;8.968;2023-02-12T06:53:36;3.00;99.90
6822;DHT22;3449;48.728;8.968;2023-02-12T06:56:05;3.10;99.90
6822;DHT22;3449;48.728;8.968;2023-02-12T06:58:35;3.00;99.90
6822;DHT22;3449;48.728;8.968;2023-02-12T07:01:13;3.00;99.90
6822;DHT22;3449;48.728;8.968;2023-02-12T07:03:43;3.00;99.90
6822;DHT22;3449;48.728;8.968;2023-02-12T07:06:12;3.00;99.90
6822;DHT22;3449;48.728;8.968;2023-02-12T07:08:39;3.00;99.90
6822;DHT22;3449;48.728;8.968;2023-02-12T07:11:06;3.00;99.90
6822;DHT22;3449;48.728;8.968;2023-02-12T07:13:33;3.10;99.90
6822;DHT22;3449;48.728;8.968;2023-02-12T07:16:03;3.10;99.90
6822;DHT22;3449;48.728;8.968;2023-02-12T07:18:31;3.10;99.90
6822;DHT22;3449;48.728;8.968;2023-02-12T07:20:58;3.10;99.90
6822;DHT22;3449;48.728;8.968;2023-02-12T07:23:27;3.10;99.90
6822;DHT22;3449;48.728;8.968;2023-02-12T07:25:54;3.20;99.90
6822;DHT22;3449;48.728;8.968;2023-02-12T07:28:22;3.20;99.90
6822;DHT22;3449;48.728;8.968;2023-02-12T07:30:49;3.20;99.90
6822;DHT22;3449;48.728;8.968;2023-02-12T07:33:16;3.20;99.90
6822;DHT22;3449;48.728;8.968;2023-02-12T07:35:43;3.30;99.90
6822;DHT22;3449;48.728;8.968;2023-02-12T07:38:10;3.30;99.90
6822;DHT22;3449;48.728;8.968;2023-02-12T07:40:39;3.30;99.90
6822;DHT22;3449;48.728;8.968;2023-02-12T07:43:05;3.30;99.90
6822;DHT22;3449;48.728;8.968;2023-02-12T07:45:32;3.30;99.90
6822;DHT22;3449;48.728;8.968;2023-02-12T07:47:59;3.40;99.90
6822;DHT22;3449;48.728;8.968;2023-02-12T07:50:26;3.40;99.90
6822;DHT22;3449;48.728;8.968;2023-02-12T07:52:53;3.50;99.90
6822;DHT22;3449;48.728;8.968;2023-02-12T07:55:20;3.40;99.90
6822;DHT22;3449;48.728;8.968;2023-02-12T07:57:48;3.60;99.90
6822;DHT22;3449;48.728;8.968;2023-02-12T08:00:16;3.60;99.90
6822;DHT22;3449;48.728;8.968;2023-02-12T08:02:42;3.70;99.90
6822;DHT22;3449;48.728;8.968;2023-02-12T08:05:09;3.70;99.90
6822;DHT22;3449;48.728;8.968;2023-02-12T08:07:36;3.70;99.90
6822;DHT22;3449;48.728;8.968;2023-02-12T08:10:04;3.80;99.90
6822;DHT22;3449;48.728;8.968;2023-02-12T08:12:31;3.90;99.90
6822;DHT22;3449;48.728;8.968;2023-02-12T08:14:59;3.90;99.90
6822;DHT22;3449;48.728;8.968;2023-02-12T08:17:26;3.90;99.90
6822;DHT22;3449;48.728;8.968;2023-02-12T08:19:53;4.00;99.90
6822;DHT22;3449;48.728;8.968;2023-02-12T08:22:19;4.00;99.90
6822;DHT22;3449;48.728;8.968;2023-02-12T08:24:46;4.10;99.90
6822;DHT22;3449;48.728;8.968;2023-02-12T08:27:13;4.10;99.90
6822;DHT22;3449;48.728;8.968;2023-02-12T08:29:40;4.20;99.90
6822;DHT22;3449;48.728;8.968;2023-02-12T08:32:08;4.20;99.90
6822;DHT22;3449;48.728;8.968;2023-02-12T08:34:38;4.20;99.90
6822;DHT22;3449;48.728;8.968;2023-02-12T08:37:05;4.30;99.90
6822;DHT22;3449;48.728;8.968;2023-02-12T08:39:32;4.30;99.90
6822;DHT22;3449;48.728;8.968;2023-02-12T08:42:00;4.30;99.90
6822;DHT22;3449;48.728;8.968;2023-02-12T08:44:27;4.30;99.90
6822;DHT22;3449;48.728;8.968;2023-02-12T08:46:54;4.30;99.90
6822;DHT22;3449;48.728;8.968;2023-02-12T08:49:24;4.40;99.90
6822;DHT22;3449;48.728;8.968;2023-02-12T08:51:53;4.40;99.90
6822;DHT22;3449;48.728;8.968;2023-02-12T08:54:21;4.40;99.90
6822;DHT22;3449;48.728;8.968;2023-02-12T08:56:49;4.40;99.90
6822;DHT22;3449;48.728;8.968;2023-02-12T08:59:20;4.40;99.90
6822;DHT22;3449;48.728;8.968;2023-02-12T09:01:49;4.50;99.90
6822;DHT22;3449;48.728;8.968;2023-02-12T09:04:18;4.60;99.90
6822;DHT22;3449;48.728;8.968;2023-02-12T09:06:48;4.60;99.90
6822;DHT22;3449;48.728;8.968;2023-02-12T09:09:15;4.70;99.90
6822;DHT22;3449;48.728;8.968;2023-02-12T09:11:42;4.70;99.90
6822;DHT22;3449;48.728;8.968;2023-02-12T09:14:11;4.80;99.90
6822;DHT22;3449;48.728;8.968;2023-02-12T09:16:39;4.90;99.90
6822;DHT22;3449;48.728;8.968;2023-02-12T09:19:06;5.00;99.90
6822;DHT22;3449;48.728;8.968;2023-02-12T09:21:33;5.00;99.90
6822;DHT22;3449;48.728;8.968;2023-02-12T09:24:02;5.10;99.90
6822;DHT22;3449;48.728;8.968;2023-02-12T09:26:29;5.20;99.90
6822;DHT22;3449;48.728;8.968;2023-02-12T09:28:56;5.30;99.90
6822;DHT22;3449;48.728;8.968;2023-02-12T09:31:25;5.30;99.90
6822;DHT22;3449;48.728;8.968;2023-02-12T09:33:52;5.30;99.90
6822;DHT22;3449;48.728;8.968;2023-02-12T09:36:20;5.40;99.90
6822;DHT22;3449;48.728;8.968;2023-02-12T09:38:47;5.50;99.90
6822;DHT22;3449;48.728;8.968;2023-02-12T09:41:59;5.50;99.90
6822;DHT22;3449;48.728;8.968;2023-02-12T09:44:36;5.50;99.90
6822;DHT22;3449;48.728;8.968;2023-02-12T09:47:10;5.60;99.90
6822;DHT22;3449;48.728;8.968;2023-02-12T09:50:00;5.60;99.90
6822;DHT22;3449;48.728;8.968;2023-02-12T09:52:29;5.70;99.90
6822;DHT22;3449;48.728;8.968;2023-02-12T09:54:57;5.70;99.90
6822;DHT22;3449;48.728;8.968;2023-02-12T09:57:29;5.70;99.90
6822;DHT22;3449;48.728;8.968;2023-02-12T10:00:00;5.70;99.90
6822;DHT22;3449;48.728;8.968;2023-02-12T10:02:27;5.70;99.90
6822;DHT22;3449;48.728;8.968;2023-02-12T10:04:54;5.60;99.90
6822;DHT22;3449;48.728;8.968;2023-02-12T10:07:32;5.60;99.90
6822;DHT22;3449;48.728;8.968;2023-02-12T10:10:09;5.60;99.90
6822;DHT22;3449;48.728;8.968;2023-02-12T10:12:49;5.70;99.90
6822;DHT22;3449;48.728;8.968;2023-02-12T10:15:34;5.90;99.90
6822;DHT22;3449;48.728;8.968;2023-02-12T10:18:27;5.90;99.90
6822;DHT22;3449;48.728;8.968;2023-02-12T10:21:08;6.00;99.90
6822;DHT22;3449;48.728;8.968;2023-02-12T10:24:05;6.10;99.90
6822;DHT22;3449;48.728;8.968;2023-02-12T10:26:40;6.10;99.90
6822;DHT22;3449;48.728;8.968;2023-02-12T10:29:13;6.20;99.90
6822;DHT22;3449;48.728;8.968;2023-02-12T10:31:43;6.20;99.90
6822;DHT22;3449;48.728;8.968;2023-02-12T10:34:15;6.20;99.90
6822;DHT22;3449;48.728;8.968;2023-02-12T10:36:44;6.30;99.90
6822;DHT22;3449;48.728;8.968;2023-02-12T10:39:17;6.30;99.90
6822;DHT22;3449;48.728;8.968;2023-02-12T10:41:49;6.40;99.90
6822;DHT22;3449;48.728;8.968;2023-02-12T10:44:19;6.40;99.90
6822;DHT22;3449;48.728;8.968;2023-02-12T10:46:46;6.60;99.90
6822;DHT22;3449;48.728;8.968;2023-02-12T10:49:15;6.60;99.90
6822;DHT22;3449;48.728;8.968;2023-02-12T10:51:55;6.50;99.90
6822;DHT22;3449;48.728;8.968;2023-02-12T10:54:37;6.50;99.90
6822;DHT22;3449;48.728;8.968;2023-02-12T10:57:12;6.70;99.90
6822;DHT22;3449;48.728;8.968;2023-02-12T10:59:43;6.70;99.90
6822;DHT22;3449;48.728;8.968;2023-02-12T11:02:22;6.80;99.90
6822;DHT22;3449;48.728;8.968;2023-02-12T11:04:50;6.80;99.90
6822;DHT22;3449;48.728;8.968;2023-02-12T11:07:17;6.90;99.90
6822;DHT22;3449;48.728;8.968;2023-02-12T11:09:45;6.70;99.90
6822;DHT22;3449;48.728;8.968;2023-02-12T11:12:23;6.70;99.90
6822;DHT22;3449;48.728;8.968;2023-02-12T11:14:56;6.80;99.90
6822;DHT22;3449;48.728;8.968;2023-02-12T11:17:25;6.80;99.90
6822;DHT22;3449;48.728;8.968;2023-02-12T11:20:20;6.90;99.90
6822;DHT22;3449;48.728;8.968;2023-02-12T11:22:52;6.70;99.90
6822;DHT22;3449;48.728;8.968;2023-02-12T11:25:20;6.80;99.90
6822;DHT22;3449;48.728;8.968;2023-02-12T11:28:00;6.80;99.90
6822;DHT22;3449;48.728;8.968;2023-02-12T11:30:28;6.70;99.90
6822;DHT22;3449;48.728;8.968;2023-02-12T11:33:14;6.80;99.90
6822;DHT22;3449;48.728;8.968;2023-02-12T11:35:48;6.90;99.90
6822;DHT22;3449;48.728;8.968;2023-02-12T11:38:22;7.00;99.90
6822;DHT22;3449;48.728;8.968;2023-02-12T11:40:52;6.90;99.90
6822;DHT22;3449;48.728;8.968;2023-02-12T11:43:20;6.90;99.90
6822;DHT22;3449;48.728;8.968;2023-02-12T11:45:52;7.00;99.90
6822;DHT22;3449;48.728;8.968;2023-02-12T11:48:24;6.90;99.90
6822;DHT22;3449;48.728;8.968;2023-02-12T11:50:53;6.90;99.90
6822;DHT22;3449;48.728;8.968;2023-02-12T11:53:22;7.00;99.90
6822;DHT22;3449;48.728;8.968;2023-02-12T11:55:55;6.90;99.90
6822;DHT22;3449;48.728;8.968;2023-02-12T11:58:24;7.00;99.90
6822;DHT22;3449;48.728;8.968;2023-02-12T12:01:00;6.80;99.90
6822;DHT22;3449;48.728;8.968;2023-02-12T12:03:34;6.90;99.90
6822;DHT22;3449;48.728;8.968;2023-02-12T12:06:20;6.80;99.90
6822;DHT22;3449;48.728;8.968;2023-02-12T12:08:52;6.90;99.90
6822;DHT22;3449;48.728;8.968;2023-02-12T12:11:25;7.10;99.90
6822;DHT22;3449;48.728;8.968;2023-02-12T12:14:00;7.20;99.90
6822;DHT22;3449;48.728;8.968;2023-02-12T12:16:35;7.10;99.90
6822;DHT22;3449;48.728;8.968;2023-02-12T12:19:23;7.00;99.90
6822;DHT22;3449;48.728;8.968;2023-02-12T12:22:35;7.10;99.90
6822;DHT22;3449;48.728;8.968;2023-02-12T12:25:09;7.20;99.90
6822;DHT22;3449;48.728;8.968;2023-02-12T12:27:42;7.40;99.90
6822;DHT22;3449;48.728;8.968;2023-02-12T12:30:44;7.40;99.90
6822;DHT22;3449;48.728;8.968;2023-02-12T12:33:16;7.50;99.90
6822;DHT22;3449;48.728;8.968;2023-02-12T12:35:57;7.60;99.90
6822;DHT22;3449;48.728;8.968;2023-02-12T12:38:34;7.70;99.90
6822;DHT22;3449;48.728;8.968;2023-02-12T12:41:10;7.70;99.90
6822;DHT22;3449;48.728;8.968;2023-02-12T12:43:52;7.90;99.90
6822;DHT22;3449;48.728;8.968;2023-02-12T12:46:56;8.10;99.90
6822;DHT22;3449;48.728;8.968;2023-02-12T12:49:46;8.20;99.90
6822;DHT22;3449;48.728;8.968;2023-02-12T12:52:26;8.10;99.90
6822;DHT22;3449;48.728;8.968;2023-02-12T12:55:06;8.20;99.90
6822;DHT22;3449;48.728;8.968;2023-02-12T12:57:45;8.20;99.90
6822;DHT22;3449;48.728;8.968;2023-02-12T13:00:21;8.40;99.90
6822;DHT22;3449;48.728;8.968;2023-02-12T13:03:31;8.70;99.90
6822;DHT22;3449;48.728;8.968;2023-02-12T13:06:17;8.60;99.90
6822;DHT22;3449;48.728;8.968;2023-02-12T13:09:06;8.30;99.90
6822;DHT22;3449;48.728;8.968;2023-02-12T13:11:43;8.00;99.90
6822;DHT22;3449;48.728;8.968;2023-02-12T13:14:26;8.40;99.90
6822;DHT22;3449;48.728;8.968;2023-02-12T13:17:02;8.40;99.90
6822;DHT22;3449;48.728;8.968;2023-02-12T13:19:36;8.50;99.90
6822;DHT22;3449;48.728;8.968;2023-02-12T13:22:14;8.30;99.90
6822;DHT22;3449;48.728;8.968;2023-02-12T13:24:46;8.70;99.90
6822;DHT22;3449;48.728;8.968;2023-02-12T13:27:19;9.00;99.90
6822;DHT22;3449;48.728;8.968;2023-02-12T13:29:48;8.70;99.90
6822;DHT22;3449;48.728;8.968;2023-02-12T13:32:22;8.70;99.90
6822;DHT22;3449;48.728;8.968;2023-02-12T13:34:51;8.50;99.90
6822;DHT22;3449;48.728;8.968;2023-02-12T13:37:26;8.40;99.90
6822;DHT22;3449;48.728;8.968;2023-02-12T13:39:58;8.70;99.90
6822;DHT22;3449;48.728;8.968;2023-02-12T13:42:38;8.60;99.90
6822;DHT22;3449;48.728;8.968;2023-02-12T13:45:20;8.50;99.90
6822;DHT22;3449;48.728;8.968;2023-02-12T13:48:01;8.30;99.90
6822;DHT22;3449;48.728;8.968;2023-02-12T13:50:36;8.40;99.90
6822;DHT22;3449;48.728;8.968;2023-02-12T13:53:17;8.30;99.90
6822;DHT22;3449;48.728;8.968;2023-02-12T13:55:58;8.30;99.90
6822;DHT22;3449;48.728;8.968;2023-02-12T13:58:47;8.20;99.90
6822;DHT22;3449;48.728;8.968;2023-02-12T14:01:36;8.10;99.90
6822;DHT22;3449;48.728;8.968;2023-02-12T14:04:26;8.10;99.90
6822;DHT22;3449;48.728;8.968;2023-02-12T14:06:57;8.20;99.90
6822;DHT22;3449;48.728;8.968;2023-02-12T14:09:30;8.20;99.90
6822;DHT22;3449;48.728;8.968;2023-02-12T14:11:59;8.10;99.90
6822;DHT22;3449;48.728;8.968;2023-02-12T14:14:29;8.00;99.90
6822;DHT22;3449;48.728;8.968;2023-02-12T14:16:57;8.10;99.90
6822;DHT22;3449;48.728;8.968;2023-02-12T14:19:53;8.10;99.90
6822;DHT22;3449;48.728;8.968;2023-02-12T14:25:46;8.20;99.90
6822;DHT22;3449;48.728;8.968;2023-02-12T14:28:23;8.20;99.90
6822;DHT22;3449;48.728;8.968;2023-02-12T14:43:30;7.80;99.90
6822;DHT22;3449;48.728;8.968;2023-02-12T14:45:59;7.90;99.90
6822;DHT22;3449;48.728;8.968;2023-02-12T14:48:50;7.90;99.90
6822;DHT22;3449;48.728;8.968;2023-02-12T14:51:21;7.90;99.90
6822;DHT22;3449;48.728;8.968;2023-02-12T14:53:53;7.80;99.90
6822;DHT22;3449;48.728;8.968;2023-02-12T14:56:27;7.70;99.90
6822;DHT22;3449;48.728;8.968;2023-02-12T14:58:57;7.70;99.90
6822;DHT22;3449;48.728;8.968;2023-02-12T15:01:30;7.70;99.90
6822;DHT22;3449;48.728;8.968;2023-02-12T15:04:03;7.70;99.90
6822;DHT22;3449;48.728;8.968;2023-02-12T15:06:40;7.70;99.90
6822;DHT22;3449;48.728;8.968;2023-02-12T15:09:13;7.60;99.90
6822;DHT22;3449;48.728;8.968;2023-02-12T15:11:47;7.60;99.90
6822;DHT22;3449;48.728;8.968;2023-02-12T15:14:21;7.60;99.90
6822;DHT22;3449;48.728;8.968;2023-02-12T15:16:54;7.60;99.90
6822;DHT22;3449;48.728;8.968;2023-02-12T15:19:39;7.60;99.90
6822;DHT22;3449;48.728;8.968;2023-02-12T15:22:18;7.60;99.90
6822;DHT22;3449;48.728;8.968;2023-02-12T15:24:45;7.60;99.90
6822;DHT22;3449;48.728;8.968;2023-02-12T15:27:12;7.60;99.90
6822;DHT22;3449;48.728;8.968;2023-02-12T15:29:44;7.60;99.90
6822;DHT22;3449;48.728;8.968;2023-02-12T15:32:17;7.60;99.90
6822;DHT22;3449;48.728;8.968;2023-02-12T15:34:48;7.50;99.90
6822;DHT22;3449;48.728;8.968;2023-02-12T15:37:21;7.50;99.90
6822;DHT22;3449;48.728;8.968;2023-02-12T15:39:51;7.50;99.90
6822;DHT22;3449;48.728;8.968;2023-02-12T15:42:27;7.50;99.90
6822;DHT22;3449;48.728;8.968;2023-02-12T15:45:17;7.50;99.90
6822;DHT22;3449;48.728;8.968;2023-02-12T15:47:55;7.40;99.90
6822;DHT22;3449;48.728;8.968;2023-02-12T15:50:23;7.40;99.90
6822;DHT22;3449;48.728;8.968;2023-02-12T15:52:50;7.40;99.90
6822;DHT22;3449;48.728;8.968;2023-02-12T15:55:20;7.40;99.90
6822;DHT22;3449;48.728;8.968;2023-02-12T15:57:50;7.40;99.90
6822;DHT22;3449;48.728;8.968;2023-02-12T16:00:28;7.30;99.90
6822;DHT22;3449;48.728;8.968;2023-02-12T16:02:55;7.30;99.90
6822;DHT22;3449;48.728;8.968;2023-02-12T16:05:22;7.20;99.90
6822;DHT22;3449;48.728;8.968;2023-02-12T16:07:50;7.20;99.90
6822;DHT22;3449;48.728;8.968;2023-02-12T16:10:18;7.20;99.90
6822;DHT22;3449;48.728;8.968;2023-02-12T16:12:46;7.10;99.90
6822;DHT22;3449;48.728;8.968;2023-02-12T16:15:26;7.00;99.90
6822;DHT22;3449;48.728;8.968;2023-02-12T16:17:53;7.00;99.90
6822;DHT22;3449;48.728;8.968;2023-02-12T16:20:22;7.00;99.90
6822;DHT22;3449;48.728;8.968;2023-02-12T16:22:51;6.90;99.90
6822;DHT22;3449;48.728;8.968;2023-02-12T16:25:22;6.90;99.90
6822;DHT22;3449;48.728;8.968;2023-02-12T16:27:56;6.80;99.90
6822;DHT22;3449;48.728;8.968;2023-02-12T16:30:30;6.80;99.90
6822;DHT22;3449;48.728;8.968;2023-02-12T16:32:59;6.70;99.90
6822;DHT22;3449;48.728;8.968;2023-02-12T16:35:28;6.60;99.90
6822;DHT22;3449;48.728;8.968;2023-02-12T16:38:02;6.60;99.90
6822;DHT22;3449;48.728;8.968;2023-02-12T16:41:13;6.50;99.90
6822;DHT22;3449;48.728;8.968;2023-02-12T16:43:40;6.40;99.90
6822;DHT22;3449;48.728;8.968;2023-02-12T16:46:09;6.30;99.90
6822;DHT22;3449;48.728;8.968;2023-02-12T16:48:39;6.20;99.90
6822;DHT22;3449;48.728;8.968;2023-02-12T16:51:20;6.20;99.90
6822;DHT22;3449;48.728;8.968;2023-02-12T16:53:47;6.00;99.90
6822;DHT22;3449;48.728;8.968;2023-02-12T16:56:19;6.00;99.90
6822;DHT22;3449;48.728;8.968;2023-02-12T16:58:49;5.90;99.90
6822;DHT22;3449;48.728;8.968;2023-02-12T17:01:21;5.80;99.90
6822;DHT22;3449;48.728;8.968;2023-02-12T17:03:49;5.80;99.90
6822;DHT22;3449;48.728;8.968;2023-02-12T17:06:18;5.70;99.90
6822;DHT22;3449;48.728;8.968;2023-02-12T17:08:46;5.70;99.90
6822;DHT22;3449;48.728;8.968;2023-02-12T17:11:13;5.60;99.90